createdAt,value
2023-04-08T00:00:56.735Z,1.70
2023-04-08T00:01:58.454Z,1.60
2023-04-08T00:02:59.978Z,1.83
2023-04-08T00:04:02.049Z,1.83
2023-04-08T00:05:04.017Z,1.73
2023-04-08T00:06:05.730Z,1.57
2023-04-08T00:07:07.329Z,1.50
2023-04-08T00:08:08.718Z,1.50
2023-04-08T00:09:10.398Z,1.20
2023-04-08T00:10:12.265Z,1.50
2023-04-08T00:11:13.796Z,1.40
2023-04-08T00:12:15.646Z,1.40
2023-04-08T00:13:17.105Z,1.70
2023-04-08T00:14:18.481Z,1.50
2023-04-08T00:15:19.915Z,1.30
2023-04-08T00:16:22.471Z,1.80
2023-04-08T00:17:23.923Z,1.53
2023-04-08T00:18:25.900Z,1.60
2023-04-08T00:19:27.594Z,1.90
2023-04-08T00:20:29.172Z,1.60
2023-04-08T00:21:31.600Z,2.00
2023-04-08T00:22:33.284Z,1.77
2023-04-08T00:23:34.639Z,2.00
2023-04-08T00:24:36.292Z,1.83
2023-04-08T00:25:38.003Z,2.07
2023-04-08T00:26:39.447Z,1.87
2023-04-08T00:27:41.393Z,1.67
2023-04-08T00:28:43.138Z,1.80
2023-04-08T00:29:45.075Z,1.87
2023-04-08T00:30:47.058Z,1.60
2023-04-08T00:31:48.801Z,1.90
2023-04-08T00:32:50.420Z,2.07
2023-04-08T00:33:52.114Z,1.67
2023-04-08T00:34:54.270Z,1.80
2023-04-08T00:35:55.751Z,2.00
2023-04-08T00:36:57.758Z,1.60
2023-04-08T00:37:59.374Z,2.00
2023-04-08T00:39:01.171Z,2.20
2023-04-08T00:40:02.655Z,1.87
2023-04-08T00:41:04.092Z,2.00
2023-04-08T00:42:05.534Z,1.83
2023-04-08T00:43:07.321Z,1.60
2023-04-08T00:44:08.745Z,1.37
2023-04-08T00:45:10.894Z,1.70
2023-04-08T00:46:12.631Z,1.63
2023-04-08T00:47:15.422Z,1.77
2023-04-08T00:48:17.144Z,1.90
2023-04-08T00:49:18.659Z,1.63
2023-04-08T00:50:20.396Z,1.93
2023-04-08T00:51:22.235Z,1.53
2023-04-08T00:52:23.684Z,1.43
2023-04-08T00:53:25.802Z,2.40
2023-04-08T00:54:27.422Z,1.60
2023-04-08T00:55:29.158Z,1.87
2023-04-08T00:56:32.768Z,1.80
2023-04-08T00:57:34.414Z,1.43
2023-04-08T00:58:36.009Z,1.60
2023-04-08T00:59:37.558Z,1.83
2023-04-08T01:00:43.761Z,1.93
2023-04-08T01:01:55.871Z,2.03
2023-04-08T01:03:00.083Z,2.07
2023-04-08T01:04:17.618Z,1.90
2023-04-08T01:05:39.850Z,1.87
2023-04-08T01:06:57.064Z,1.70
2023-04-08T01:08:02.927Z,1.70
2023-04-08T01:09:06.060Z,1.83
2023-04-08T01:10:17.167Z,1.70
2023-04-08T01:11:20.207Z,1.83
2023-04-08T01:12:31.071Z,2.40
2023-04-08T01:13:37.094Z,1.90
2023-04-08T01:14:42.526Z,1.70
2023-04-08T01:15:45.351Z,1.93
2023-04-08T01:16:48.657Z,1.70
2023-04-08T01:17:55.432Z,1.67
2023-04-08T01:18:56.946Z,1.90
2023-04-08T01:20:01.622Z,1.67
2023-04-08T01:21:04.100Z,1.50
2023-04-08T01:22:43.279Z,1.60
2023-04-08T01:23:57.363Z,1.77
2023-04-08T01:25:08.701Z,1.90
2023-04-08T01:26:22.753Z,1.90
2023-04-08T01:27:30.933Z,2.00
2023-04-08T01:28:35.571Z,2.00
2023-04-08T01:29:38.082Z,1.80
2023-04-08T01:30:42.573Z,1.77
2023-04-08T01:31:44.574Z,1.83
2023-04-08T01:32:47.736Z,1.90
2023-04-08T01:33:51.474Z,1.67
2023-04-08T01:34:54.438Z,2.03
2023-04-08T01:35:57.675Z,2.10
2023-04-08T01:37:02.125Z,1.60
2023-04-08T01:38:05.806Z,1.80
2023-04-08T01:39:08.273Z,2.17
2023-04-08T01:40:11.422Z,2.03
2023-04-08T01:41:12.814Z,2.00
2023-04-08T01:42:15.602Z,2.10
2023-04-08T01:43:19.568Z,1.90
2023-04-08T01:44:22.628Z,2.13
2023-04-08T01:45:26.231Z,1.87
2023-04-08T01:46:28.905Z,2.20
2023-04-08T01:47:31.174Z,1.97
2023-04-08T01:48:33.273Z,1.83
2023-04-08T01:49:35.607Z,2.03
2023-04-08T01:50:38.205Z,1.77
2023-04-08T01:51:41.100Z,1.90
2023-04-08T01:52:49.245Z,1.57
2023-04-08T01:53:50.690Z,1.70
2023-04-08T01:54:52.593Z,1.87
2023-04-08T01:56:01.719Z,2.10
2023-04-08T01:57:08.889Z,1.90
2023-04-08T01:58:15.223Z,1.53
2023-04-08T01:59:18.591Z,2.07
2023-04-08T02:00:24.792Z,1.93
2023-04-08T02:01:29.716Z,2.17
2023-04-08T02:02:32.883Z,2.17
2023-04-08T02:03:35.849Z,2.07
2023-04-08T02:04:38.736Z,1.67
2023-04-08T02:05:41.288Z,1.83
2023-04-08T02:06:45.676Z,2.00
2023-04-08T02:07:50.176Z,1.70
2023-04-08T02:08:52.263Z,2.17
2023-04-08T02:09:59.623Z,2.00
2023-04-08T02:11:01.136Z,1.90
2023-04-08T02:12:02.517Z,2.20
2023-04-08T02:13:04.001Z,1.80
2023-04-08T02:14:05.732Z,1.80
2023-04-08T02:15:09.747Z,1.77
2023-04-08T02:16:19.785Z,1.70
2023-04-08T02:17:40.444Z,2.10
2023-04-08T02:18:46.058Z,1.93
2023-04-08T02:20:07.941Z,2.10
2023-04-08T02:21:15.998Z,1.93
2023-04-08T02:22:29.852Z,2.27
2023-04-08T02:23:35.536Z,2.10
2023-04-08T02:24:38.974Z,1.80
2023-04-08T02:25:44.337Z,2.07
2023-04-08T02:26:48.910Z,2.70
2023-04-08T02:27:53.086Z,2.10
2023-04-08T02:28:56.300Z,1.90
2023-04-08T02:29:58.696Z,2.20
2023-04-08T02:31:02.911Z,1.80
2023-04-08T02:32:06.356Z,2.10
2023-04-08T02:33:11.883Z,1.80
2023-04-08T02:34:16.290Z,2.10
2023-04-08T02:35:18.788Z,1.73
2023-04-08T02:36:20.953Z,2.07
2023-04-08T02:37:23.120Z,2.00
2023-04-08T02:38:30.065Z,2.00
2023-04-08T02:39:32.920Z,2.03
2023-04-08T02:40:35.504Z,1.70
2023-04-08T02:41:38.645Z,2.17
2023-04-08T02:42:41.441Z,2.70
2023-04-08T02:43:43.608Z,2.00
2023-04-08T02:44:45.768Z,1.80
2023-04-08T02:45:47.514Z,1.93
2023-04-08T02:46:49.911Z,2.00
2023-04-08T02:47:51.834Z,1.90
2023-04-08T02:48:54.001Z,2.17
2023-04-08T02:49:55.411Z,2.33
2023-04-08T02:50:57.257Z,1.90
2023-04-08T02:51:58.904Z,1.90
2023-04-08T02:53:00.643Z,2.47
2023-04-08T02:54:03.224Z,2.20
2023-04-08T02:55:06.699Z,2.20
2023-04-08T02:56:11.841Z,2.30
2023-04-08T02:57:13.249Z,2.03
2023-04-08T02:58:14.633Z,2.03
2023-04-08T02:59:16.348Z,1.90
2023-04-08T03:00:17.961Z,2.20
2023-04-08T03:01:20.047Z,2.27
2023-04-08T03:02:22.147Z,2.20
2023-04-08T03:03:28.758Z,1.83
2023-04-08T03:04:30.569Z,2.20
2023-04-08T03:05:32.269Z,1.60
2023-04-08T03:06:33.989Z,1.80
2023-04-08T03:07:35.917Z,2.53
2023-04-08T03:08:37.303Z,2.00
2023-04-08T03:09:38.748Z,1.70
2023-04-08T03:10:40.416Z,2.30
2023-04-08T03:11:41.790Z,1.80
2023-04-08T03:12:43.282Z,2.30
2023-04-08T03:13:44.698Z,2.00
2023-04-08T03:14:46.170Z,1.80
2023-04-08T03:15:47.791Z,2.07
2023-04-08T03:16:49.553Z,1.97
2023-04-08T03:17:51.044Z,2.10
2023-04-08T03:18:53.025Z,2.53
2023-04-08T03:19:54.852Z,2.07
2023-04-08T03:20:56.469Z,1.90
2023-04-08T03:21:57.817Z,2.00
2023-04-08T03:22:59.391Z,1.60
2023-04-08T03:24:00.769Z,1.63
2023-04-08T03:25:02.442Z,2.40
2023-04-08T03:26:04.969Z,2.10
2023-04-08T03:27:08.578Z,2.00
2023-04-08T03:28:10.043Z,1.70
2023-04-08T03:29:11.570Z,1.57
2023-04-08T03:30:13.237Z,1.57
2023-04-08T03:31:14.954Z,2.03
2023-04-08T03:32:16.529Z,1.80
2023-04-08T03:33:18.004Z,2.00
2023-04-08T03:34:19.734Z,2.07
2023-04-08T03:35:21.414Z,2.07
2023-04-08T03:36:22.819Z,1.97
2023-04-08T03:37:24.306Z,1.50
2023-04-08T03:38:25.912Z,1.60
2023-04-08T03:39:27.570Z,2.30
2023-04-08T03:40:29.033Z,1.67
2023-04-08T03:41:30.712Z,1.90
2023-04-08T03:42:32.213Z,1.50
2023-04-08T03:43:35.179Z,2.00
2023-04-08T03:44:37.606Z,2.23
2023-04-08T03:45:39.391Z,1.90
2023-04-08T03:46:40.949Z,1.90
2023-04-08T03:47:42.520Z,1.57
2023-04-08T03:48:44.075Z,1.77
2023-04-08T03:49:45.573Z,2.50
2023-04-08T03:50:47.150Z,2.07
2023-04-08T03:51:48.735Z,1.90
2023-04-08T03:52:50.178Z,1.77
2023-04-08T03:53:51.600Z,1.70
2023-04-08T03:54:53.021Z,1.77
2023-04-08T03:55:54.714Z,2.10
2023-04-08T03:56:57.085Z,1.73
2023-04-08T03:57:58.804Z,2.37
2023-04-08T03:59:00.605Z,2.17
2023-04-08T04:00:02.048Z,1.90
2023-04-08T04:01:13.898Z,1.97
2023-04-08T04:02:15.376Z,1.87
2023-04-08T04:03:17.262Z,1.80
2023-04-08T04:04:19.132Z,2.20
2023-04-08T04:05:21.081Z,1.80
2023-04-08T04:06:22.536Z,1.80
2023-04-08T04:07:23.892Z,1.87
2023-04-08T04:08:25.330Z,1.80
2023-04-08T04:09:27.586Z,1.90
2023-04-08T04:10:29.037Z,1.70
2023-04-08T04:11:30.429Z,1.73
2023-04-08T04:12:31.837Z,2.20
2023-04-08T04:13:33.342Z,1.70
2023-04-08T04:14:34.774Z,1.80
2023-04-08T04:15:40.484Z,1.90
2023-04-08T04:16:41.927Z,2.00
2023-04-08T04:17:43.337Z,2.57
2023-04-08T04:18:45.055Z,1.90
2023-04-08T04:19:46.509Z,2.50
2023-04-08T04:20:48.171Z,2.00
2023-04-08T04:21:49.619Z,2.30
2023-04-08T04:22:51.014Z,1.80
2023-04-08T04:23:52.425Z,2.17
2023-04-08T04:24:54.266Z,2.00
2023-04-08T04:25:55.725Z,2.00
2023-04-08T04:26:57.201Z,1.80
2023-04-08T04:27:59.079Z,2.07
2023-04-08T04:29:00.675Z,1.57
2023-04-08T04:30:02.891Z,2.17
2023-04-08T04:31:04.801Z,1.60
2023-04-08T04:32:06.736Z,1.97
2023-04-08T04:33:08.298Z,1.97
2023-04-08T04:34:09.719Z,2.03
2023-04-08T04:35:12.579Z,2.10
2023-04-08T04:36:15.530Z,2.10
2023-04-08T04:37:17.131Z,2.27
2023-04-08T04:38:18.523Z,2.00
2023-04-08T04:39:19.989Z,2.50
2023-04-08T04:40:21.727Z,2.27
2023-04-08T04:41:23.220Z,2.10
2023-04-08T04:42:24.637Z,2.03
2023-04-08T04:43:26.434Z,2.00
2023-04-08T04:44:27.824Z,2.50
2023-04-08T04:45:29.196Z,2.13
2023-04-08T04:46:31.053Z,1.70
2023-04-08T04:47:32.967Z,2.30
2023-04-08T04:48:35.530Z,1.77
2023-04-08T04:49:37.125Z,2.00
2023-04-08T04:50:38.524Z,1.80
2023-04-08T04:51:40.569Z,1.60
2023-04-08T04:52:42.403Z,1.70
2023-04-08T04:53:43.904Z,2.40
2023-04-08T04:54:45.420Z,2.63
2023-04-08T04:55:46.862Z,2.20
2023-04-08T04:56:48.336Z,1.90
2023-04-08T04:57:49.815Z,2.53
2023-04-08T04:58:51.751Z,2.23
2023-04-08T04:59:53.838Z,2.30
2023-04-08T05:00:56.097Z,1.70
2023-04-08T05:01:57.921Z,1.87
2023-04-08T05:02:59.823Z,1.90
2023-04-08T05:04:01.349Z,2.03
2023-04-08T05:05:03.728Z,2.10
2023-04-08T05:06:05.374Z,1.60
2023-04-08T05:07:06.782Z,1.90
2023-04-08T05:08:08.633Z,1.93
2023-04-08T05:09:10.268Z,1.67
2023-04-08T05:10:12.053Z,2.10
2023-04-08T05:11:13.433Z,1.80
2023-04-08T05:12:14.984Z,2.17
2023-04-08T05:13:17.668Z,2.03
2023-04-08T05:14:19.092Z,1.90
2023-04-08T05:15:21.437Z,2.07
2023-04-08T05:16:23.082Z,1.80
2023-04-08T05:17:24.536Z,2.20
2023-04-08T05:18:25.925Z,1.93
2023-04-08T05:19:27.276Z,2.27
2023-04-08T05:20:29.140Z,1.97
2023-04-08T05:21:30.654Z,1.60
2023-04-08T05:22:32.079Z,2.00
2023-04-08T05:23:35.132Z,2.53
2023-04-08T05:24:36.921Z,1.80
2023-04-08T05:25:38.521Z,2.10
2023-04-08T05:26:40.006Z,2.00
2023-04-08T05:27:42.226Z,2.53
2023-04-08T05:28:43.646Z,2.63
2023-04-08T05:29:45.804Z,2.13
2023-04-08T05:30:51.891Z,2.00
2023-04-08T05:31:53.551Z,1.77
2023-04-08T05:32:56.156Z,2.17
2023-04-08T05:33:58.633Z,1.70
2023-04-08T05:35:03.167Z,2.20
2023-04-08T05:36:04.849Z,1.90
2023-04-08T05:37:06.299Z,2.00
2023-04-08T05:38:07.843Z,1.90
2023-04-08T05:39:09.370Z,2.10
2023-04-08T05:40:11.481Z,2.17
2023-04-08T05:41:12.941Z,2.07
2023-04-08T05:42:14.641Z,1.90
2023-04-08T05:43:16.152Z,2.20
2023-04-08T05:44:17.710Z,2.20
2023-04-08T05:45:19.334Z,2.10
2023-04-08T05:46:20.871Z,2.03
2023-04-08T05:47:22.617Z,1.80
2023-04-08T05:48:24.130Z,1.93
2023-04-08T05:49:25.715Z,1.87
2023-04-08T05:50:27.333Z,1.80
2023-04-08T05:51:29.006Z,2.10
2023-04-08T05:52:30.454Z,2.07
2023-04-08T05:53:32.206Z,1.73
2023-04-08T05:54:33.888Z,1.70
2023-04-08T05:55:35.865Z,1.70
2023-04-08T05:56:37.308Z,1.67
2023-04-08T05:57:38.908Z,1.77
2023-04-08T05:58:40.550Z,1.70
2023-04-08T05:59:41.981Z,2.20
2023-04-08T06:00:43.417Z,2.20
2023-04-08T06:01:44.893Z,1.87
2023-04-08T06:02:46.480Z,1.73
2023-04-08T06:03:48.102Z,1.57
2023-04-08T06:04:49.815Z,1.50
2023-04-08T06:05:51.176Z,1.70
2023-04-08T06:06:52.954Z,1.73
2023-04-08T06:07:54.375Z,1.93
2023-04-08T06:08:56.087Z,1.50
2023-04-08T06:09:57.515Z,2.10
2023-04-08T06:10:59.072Z,2.03
2023-04-08T06:12:00.783Z,2.00
2023-04-08T06:13:02.129Z,1.70
2023-04-08T06:14:03.752Z,1.80
2023-04-08T06:15:09.866Z,1.50
2023-04-08T06:16:18.687Z,1.93
2023-04-08T06:17:21.862Z,1.90
2023-04-08T06:18:23.518Z,1.70
2023-04-08T06:19:25.272Z,2.20
2023-04-08T06:20:26.826Z,1.77
2023-04-08T06:21:28.226Z,2.07
2023-04-08T06:22:29.806Z,1.90
2023-04-08T06:23:31.723Z,2.23
2023-04-08T06:24:33.237Z,1.80
2023-04-08T06:25:35.428Z,1.37
2023-04-08T06:26:37.076Z,1.60
2023-04-08T06:27:38.449Z,1.90
2023-04-08T06:28:40.460Z,2.13
2023-04-08T06:29:43.038Z,1.80
2023-04-08T06:30:44.778Z,1.87
2023-04-08T06:31:46.354Z,1.63
2023-04-08T06:32:47.769Z,2.30
2023-04-08T06:33:49.222Z,1.83
2023-04-08T06:34:51.061Z,1.83
2023-04-08T06:35:52.727Z,2.20
2023-04-08T06:36:54.162Z,1.80
2023-04-08T06:37:55.691Z,1.63
2023-04-08T06:38:57.224Z,2.00
2023-04-08T06:39:58.888Z,1.83
2023-04-08T06:41:04.851Z,1.50
2023-04-08T06:42:06.611Z,2.20
2023-04-08T06:43:31.298Z,1.73
2023-04-08T06:44:32.969Z,2.50
2023-04-08T06:45:35.295Z,2.03
2023-04-08T06:46:36.999Z,2.53
2023-04-08T06:47:38.463Z,2.50
2023-04-08T06:48:40.192Z,2.47
2023-04-08T06:49:42.553Z,2.77
2023-04-08T06:50:44.130Z,2.63
2023-04-08T06:51:45.740Z,2.03
2023-04-08T06:52:47.494Z,2.50
2023-04-08T06:53:49.087Z,2.67
2023-04-08T06:54:50.939Z,2.70
2023-04-08T06:55:52.684Z,2.00
2023-04-08T06:56:54.143Z,1.90
2023-04-08T06:57:55.690Z,2.03
2023-04-08T06:58:57.166Z,1.60
2023-04-08T07:00:00.449Z,2.10
2023-04-08T07:01:03.227Z,2.60
2023-04-08T07:02:04.707Z,2.00
2023-04-08T07:03:06.543Z,2.40
2023-04-08T07:04:08.209Z,1.93
2023-04-08T07:05:09.766Z,2.43
2023-04-08T07:06:11.577Z,2.00
2023-04-08T07:07:12.928Z,2.73
2023-04-08T07:08:14.401Z,2.70
2023-04-08T07:09:15.931Z,2.57
2023-04-08T07:10:17.425Z,2.27
2023-04-08T07:11:18.798Z,3.00
2023-04-08T07:12:20.226Z,2.43
2023-04-08T07:13:23.788Z,2.63
2023-04-08T07:14:25.348Z,2.00
2023-04-08T07:15:26.966Z,2.20
2023-04-08T07:16:28.478Z,2.50
2023-04-08T07:17:29.989Z,2.30
2023-04-08T07:18:31.754Z,2.37
2023-04-08T07:19:33.133Z,2.07
2023-04-08T07:20:38.841Z,2.00
2023-04-08T07:21:40.512Z,2.53
2023-04-08T07:22:42.152Z,2.57
2023-04-08T07:23:43.781Z,2.27
2023-04-08T07:24:49.609Z,3.10
2023-04-08T07:25:51.560Z,2.63
2023-04-08T07:26:53.388Z,2.10
2023-04-08T07:27:54.864Z,2.13
2023-04-08T07:28:56.517Z,2.63
2023-04-08T07:29:58.038Z,2.60
2023-04-08T07:31:16.794Z,2.27
2023-04-08T07:32:18.299Z,2.60
2023-04-08T07:33:19.775Z,2.37
2023-04-08T07:34:21.350Z,2.70
2023-04-08T07:35:24.606Z,2.40
2023-04-08T07:36:26.454Z,3.10
2023-04-08T07:37:28.339Z,2.07
2023-04-08T07:38:29.841Z,2.23
2023-04-08T07:39:31.499Z,2.60
2023-04-08T07:40:32.873Z,2.60
2023-04-08T07:41:34.585Z,2.23
2023-04-08T07:42:35.983Z,2.00
2023-04-08T07:43:37.732Z,2.23
2023-04-08T07:44:39.248Z,2.60
2023-04-08T07:45:41.221Z,2.17
2023-04-08T07:46:42.707Z,1.90
2023-04-08T07:47:44.727Z,2.30
2023-04-08T07:48:46.632Z,2.17
2023-04-08T07:49:48.429Z,2.57
2023-04-08T07:51:09.648Z,2.17
2023-04-08T07:52:11.657Z,1.80
2023-04-08T07:53:13.732Z,1.90
2023-04-08T07:54:17.466Z,2.57
2023-04-08T07:55:19.053Z,2.13
2023-04-08T07:56:21.627Z,1.70
2023-04-08T07:57:23.310Z,2.30
2023-04-08T07:58:25.344Z,2.20
2023-04-08T07:59:28.354Z,2.00
2023-04-08T08:00:31.375Z,2.50
2023-04-08T08:01:34.991Z,2.40
2023-04-08T08:02:36.565Z,1.90
2023-04-08T08:03:39.881Z,2.23
2023-04-08T08:04:41.518Z,2.57
2023-04-08T08:05:43.058Z,2.83
2023-04-08T08:06:44.583Z,2.93
2023-04-08T08:07:46.106Z,2.40
2023-04-08T08:08:47.517Z,2.10
2023-04-08T08:09:49.206Z,2.30
2023-04-08T08:10:50.622Z,2.77
2023-04-08T08:11:52.266Z,3.27
2023-04-08T08:12:53.761Z,2.60
2023-04-08T08:13:55.432Z,2.70
2023-04-08T08:14:59.115Z,2.87
2023-04-08T08:16:00.769Z,2.77
2023-04-08T08:17:03.981Z,1.80
2023-04-08T08:18:05.461Z,1.90
2023-04-08T08:19:08.678Z,2.47
2023-04-08T08:20:11.551Z,2.73
2023-04-08T08:21:13.510Z,2.83
2023-04-08T08:22:14.920Z,2.57
2023-04-08T08:23:16.830Z,3.40
2023-04-08T08:24:18.242Z,2.70
2023-04-08T08:25:20.200Z,2.70
2023-04-08T08:26:22.155Z,2.90
2023-04-08T08:27:24.518Z,2.63
2023-04-08T08:28:26.243Z,2.73
2023-04-08T08:29:27.697Z,3.57
2023-04-08T08:30:29.193Z,2.73
2023-04-08T08:31:30.835Z,3.50
2023-04-08T08:32:32.823Z,2.73
2023-04-08T08:33:34.628Z,2.80
2023-04-08T08:34:36.236Z,2.67
2023-04-08T08:35:37.835Z,3.73
2023-04-08T08:36:39.462Z,3.47
2023-04-08T08:37:40.861Z,2.80
2023-04-08T08:38:43.261Z,2.40
2023-04-08T08:39:44.689Z,2.80
2023-04-08T08:40:46.328Z,3.40
2023-04-08T08:41:47.985Z,3.57
2023-04-08T08:42:53.483Z,3.33
2023-04-08T08:43:56.054Z,2.40
2023-04-08T08:44:57.648Z,3.20
2023-04-08T08:45:59.787Z,2.87
2023-04-08T08:47:01.338Z,3.20
2023-04-08T08:48:03.011Z,3.30
2023-04-08T08:49:04.780Z,2.70
2023-04-08T08:50:07.099Z,3.10
2023-04-08T08:51:12.807Z,2.80
2023-04-08T08:52:18.550Z,3.43
2023-04-08T08:53:20.715Z,3.33
2023-04-08T08:54:22.287Z,3.80
2023-04-08T08:56:28.028Z,2.80
2023-04-08T08:57:29.572Z,3.87
2023-04-08T08:58:31.300Z,2.80
2023-04-08T08:59:32.884Z,3.30
2023-04-08T09:00:36.490Z,4.63
2023-04-08T09:01:41.332Z,2.37
2023-04-08T09:02:43.440Z,3.63
2023-04-08T09:03:45.527Z,2.70
2023-04-08T09:04:58.619Z,3.40
2023-04-08T09:06:02.038Z,2.83
2023-04-08T09:07:11.432Z,2.63
2023-04-08T09:08:42.795Z,3.77
2023-04-08T09:09:51.197Z,2.83
2023-04-08T09:10:53.531Z,2.50
2023-04-08T09:12:04.559Z,2.80
2023-04-08T09:13:06.441Z,2.97
2023-04-08T09:14:24.469Z,2.77
2023-04-08T09:15:25.944Z,3.07
2023-04-08T09:16:28.147Z,3.00
2023-04-08T09:17:35.189Z,2.67
2023-04-08T09:18:37.877Z,2.77
2023-04-08T09:19:39.435Z,2.90
2023-04-08T09:20:52.872Z,2.53
2023-04-08T09:22:11.567Z,2.47
2023-04-08T09:23:12.967Z,3.20
2023-04-08T09:24:31.154Z,2.43
2023-04-08T09:25:33.702Z,2.43
2023-04-08T09:26:37.544Z,3.30
2023-04-08T09:27:39.066Z,2.73
2023-04-08T09:28:41.831Z,1.90
2023-04-08T09:29:43.713Z,2.20
2023-04-08T09:30:45.123Z,2.67
2023-04-08T09:31:47.583Z,3.90
2023-04-08T09:32:53.812Z,2.77
2023-04-08T09:33:59.770Z,3.30
2023-04-08T09:35:01.365Z,3.40
2023-04-08T09:36:03.017Z,2.70
2023-04-08T09:37:04.437Z,3.30
2023-04-08T09:38:05.810Z,2.10
2023-04-08T09:39:07.746Z,2.50
2023-04-08T09:40:09.933Z,2.63
2023-04-08T09:41:15.533Z,3.60
2023-04-08T09:42:21.043Z,3.10
2023-04-08T09:43:25.036Z,2.63
2023-04-08T09:44:30.590Z,2.57
2023-04-08T09:45:34.321Z,2.83
2023-04-08T09:46:38.804Z,2.30
2023-04-08T09:48:04.813Z,3.07
2023-04-08T09:49:07.818Z,1.97
2023-04-08T09:50:09.775Z,2.53
2023-04-08T09:51:15.774Z,3.20
2023-04-08T09:52:46.371Z,2.83
2023-04-08T09:53:50.278Z,2.97
2023-04-08T09:55:04.708Z,3.10
2023-04-08T09:56:09.855Z,3.00
2023-04-08T09:57:22.051Z,3.20
2023-04-08T09:58:31.734Z,3.17
2023-04-08T09:59:36.519Z,2.60
2023-04-08T10:00:44.131Z,2.77
2023-04-08T10:01:52.531Z,2.43
2023-04-08T10:03:11.996Z,3.23
2023-04-08T10:04:21.047Z,3.23
2023-04-08T10:05:24.541Z,2.60
2023-04-08T10:06:31.990Z,3.67
2023-04-08T10:07:35.345Z,2.73
2023-04-08T10:08:37.511Z,2.73
2023-04-08T10:09:39.294Z,2.97
2023-04-08T10:10:41.790Z,2.83
2023-04-08T10:11:43.656Z,3.10
2023-04-08T10:12:45.365Z,2.47
2023-04-08T10:13:48.315Z,2.90
2023-04-08T10:15:28.043Z,3.17
2023-04-08T10:16:29.962Z,2.67
2023-04-08T10:17:36.661Z,2.60
2023-04-08T10:18:38.282Z,3.30
2023-04-08T10:19:41.450Z,2.90
2023-04-08T10:20:44.125Z,3.23
2023-04-08T10:21:48.663Z,4.03
2023-04-08T10:22:50.274Z,2.87
2023-04-08T10:23:59.618Z,2.50
2023-04-08T10:25:15.900Z,3.13
2023-04-08T10:26:34.680Z,2.60
2023-04-08T10:27:42.642Z,3.10
2023-04-08T10:28:44.027Z,2.60
2023-04-08T10:29:46.441Z,3.17
2023-04-08T10:30:48.865Z,2.50
2023-04-08T10:31:51.451Z,3.03
2023-04-08T10:32:56.471Z,2.40
2023-04-08T10:34:18.693Z,3.10
2023-04-08T10:35:35.094Z,2.80
2023-04-08T10:36:37.497Z,2.67
2023-04-08T10:37:39.474Z,2.90
2023-04-08T10:38:46.676Z,2.30
2023-04-08T10:39:53.087Z,3.07
2023-04-08T10:40:54.949Z,2.70
2023-04-08T10:41:56.429Z,3.13
2023-04-08T10:42:58.893Z,2.60
2023-04-08T10:44:04.114Z,2.40
2023-04-08T10:45:05.970Z,2.83
2023-04-08T10:46:11.647Z,2.93
2023-04-08T10:47:13.500Z,2.33
2023-04-08T10:48:24.548Z,3.10
2023-04-08T10:49:33.574Z,2.33
2023-04-08T10:50:34.962Z,3.43
2023-04-08T10:51:36.352Z,2.60
2023-04-08T10:52:53.576Z,2.80
2023-04-08T10:53:55.099Z,3.40
2023-04-08T10:54:56.531Z,2.37
2023-04-08T10:56:13.517Z,2.70
2023-04-08T10:57:16.050Z,2.77
2023-04-08T10:58:17.563Z,3.20
2023-04-08T10:59:32.995Z,3.07
2023-04-08T11:00:37.030Z,3.30
2023-04-08T11:01:40.803Z,3.17
2023-04-08T11:02:43.336Z,3.00
2023-04-08T11:03:45.619Z,3.10
2023-04-08T11:04:48.318Z,3.13
2023-04-08T11:05:50.228Z,3.00
2023-04-08T11:06:52.136Z,2.47
2023-04-08T11:07:53.696Z,2.90
2023-04-08T11:09:00.152Z,3.03
2023-04-08T11:10:04.981Z,2.80
2023-04-08T11:11:11.105Z,3.10
2023-04-08T11:12:16.642Z,4.40
2023-04-08T11:13:18.058Z,3.27
2023-04-08T11:14:22.048Z,3.03
2023-04-08T11:15:25.444Z,3.63
2023-04-08T11:16:28.187Z,3.53
2023-04-08T11:17:30.966Z,3.50
2023-04-08T11:18:34.073Z,3.43
2023-04-08T11:19:36.975Z,2.93
2023-04-08T11:20:38.514Z,3.30
2023-04-08T11:21:40.289Z,3.13
2023-04-08T11:22:42.393Z,3.67
2023-04-08T11:23:44.017Z,3.87
2023-04-08T11:24:45.592Z,4.23
2023-04-08T11:25:48.472Z,3.53
2023-04-08T11:26:50.392Z,3.60
2023-04-08T11:27:52.850Z,3.60
2023-04-08T11:28:57.549Z,2.40
2023-04-08T11:30:00.396Z,3.50
2023-04-08T11:31:05.830Z,3.23
2023-04-08T11:32:08.965Z,2.70
2023-04-08T11:33:11.096Z,4.30
2023-04-08T11:34:13.410Z,2.60
2023-04-08T11:35:17.044Z,2.60
2023-04-08T11:36:18.977Z,2.50
2023-04-08T11:37:22.234Z,2.67
2023-04-08T11:38:24.891Z,3.50
2023-04-08T11:39:26.500Z,4.03
2023-04-08T11:40:28.375Z,3.53
2023-04-08T11:41:40.788Z,3.33
2023-04-08T11:42:42.945Z,3.90
2023-04-08T11:43:55.741Z,3.20
2023-04-08T11:44:57.310Z,3.10
2023-04-08T11:45:58.891Z,3.50
2023-04-08T11:47:02.289Z,3.47
2023-04-08T11:48:10.172Z,3.10
2023-04-08T11:49:12.235Z,3.23
2023-04-08T11:50:23.645Z,3.60
2023-04-08T11:51:25.231Z,3.90
2023-04-08T11:52:43.282Z,3.00
2023-04-08T11:53:47.982Z,2.77
2023-04-08T11:54:49.415Z,3.20
2023-04-08T11:55:51.300Z,3.27
2023-04-08T11:56:53.658Z,3.10
2023-04-08T11:57:56.905Z,2.50
2023-04-08T11:58:58.544Z,3.40
2023-04-08T12:00:00.497Z,3.10
2023-04-08T12:01:02.275Z,3.10
2023-04-08T12:02:04.474Z,3.50
2023-04-08T12:03:07.059Z,3.20
2023-04-08T12:04:10.406Z,3.80
2023-04-08T12:05:12.398Z,3.23
2023-04-08T12:06:14.003Z,3.20
2023-04-08T12:07:15.453Z,2.93
2023-04-08T12:08:17.822Z,3.10
2023-04-08T12:09:19.514Z,2.97
2023-04-08T12:10:21.612Z,3.63
2023-04-08T12:11:23.685Z,3.87
2023-04-08T12:12:25.647Z,3.23
2023-04-08T12:13:27.681Z,3.10
2023-04-08T12:14:29.235Z,3.10
2023-04-08T12:15:32.749Z,2.93
2023-04-08T12:16:34.237Z,4.00
2023-04-08T12:17:36.171Z,3.57
2023-04-08T12:18:38.082Z,3.13
2023-04-08T12:19:39.565Z,4.10
2023-04-08T12:20:41.041Z,3.20
2023-04-08T12:21:42.445Z,2.90
2023-04-08T12:22:44.124Z,2.83
2023-04-08T12:23:46.174Z,2.53
2023-04-08T12:24:47.589Z,3.90
2023-04-08T12:25:48.946Z,3.40
2023-04-08T12:26:50.447Z,4.07
2023-04-08T12:27:52.318Z,4.07
2023-04-08T12:28:53.729Z,3.20
2023-04-08T12:29:55.744Z,3.57
2023-04-08T12:30:57.130Z,3.10
2023-04-08T12:31:58.743Z,3.30
2023-04-08T12:33:00.772Z,2.90
2023-04-08T12:34:02.651Z,3.00
2023-04-08T12:35:04.307Z,2.90
2023-04-08T12:36:05.885Z,3.10
2023-04-08T12:37:07.369Z,3.57
2023-04-08T12:38:08.893Z,3.40
2023-04-08T12:39:10.347Z,2.73
2023-04-08T12:40:11.996Z,2.60
2023-04-08T12:41:13.437Z,2.60
2023-04-08T12:42:15.162Z,2.60
2023-04-08T12:43:16.648Z,3.27
2023-04-08T12:44:18.120Z,2.40
2023-04-08T12:45:19.762Z,2.60
2023-04-08T12:46:21.703Z,2.70
2023-04-08T12:47:24.898Z,2.60
2023-04-08T12:48:27.927Z,3.23
2023-04-08T12:49:29.317Z,3.37
2023-04-08T12:50:30.836Z,2.77
2023-04-08T12:51:32.580Z,3.13
2023-04-08T12:52:34.180Z,3.00
2023-04-08T12:53:35.559Z,3.57
2023-04-08T12:54:37.050Z,4.30
2023-04-08T12:55:38.432Z,2.57
2023-04-08T12:56:39.816Z,2.93
2023-04-08T12:57:41.479Z,2.60
2023-04-08T12:58:42.868Z,3.33
2023-04-08T12:59:44.240Z,3.03
2023-04-08T13:00:46.715Z,3.17
2023-04-08T13:01:48.711Z,3.73
2023-04-08T13:02:50.837Z,3.47
2023-04-08T13:03:52.547Z,3.93
2023-04-08T13:04:55.225Z,4.03
2023-04-08T13:05:58.991Z,3.37
2023-04-08T13:07:00.996Z,3.30
2023-04-08T13:08:02.372Z,4.27
2023-04-08T13:09:03.968Z,2.60
2023-04-08T13:10:07.095Z,2.77
2023-04-08T13:11:09.111Z,2.80
2023-04-08T13:12:12.159Z,3.50
2023-04-08T13:13:14.288Z,2.87
2023-04-08T13:14:16.430Z,3.60
2023-04-08T13:15:18.097Z,2.90
2023-04-08T13:16:19.762Z,2.60
2023-04-08T13:17:22.079Z,2.83
2023-04-08T13:18:23.464Z,3.30
2023-04-08T13:19:25.021Z,3.00
2023-04-08T13:20:26.647Z,2.70
2023-04-08T13:21:28.133Z,3.00
2023-04-08T13:22:29.827Z,3.33
2023-04-08T13:23:31.300Z,3.30
2023-04-08T13:24:33.611Z,2.70
2023-04-08T13:25:35.030Z,2.80
2023-04-08T13:26:36.456Z,2.87
2023-04-08T13:27:38.187Z,2.43
2023-04-08T13:28:53.748Z,2.20
2023-04-08T13:29:58.455Z,2.33
2023-04-08T13:31:00.354Z,2.97
2023-04-08T13:32:02.146Z,2.90
2023-04-08T13:33:03.887Z,2.30
2023-04-08T13:34:05.347Z,2.27
2023-04-08T13:35:07.052Z,2.57
2023-04-08T13:36:08.986Z,2.60
2023-04-08T13:37:10.717Z,2.10
2023-04-08T13:38:12.843Z,2.03
2023-04-08T13:39:14.333Z,2.23
2023-04-08T13:40:15.881Z,2.60
2023-04-08T13:41:17.517Z,2.70
2023-04-08T13:42:18.947Z,2.43
2023-04-08T13:43:20.632Z,2.87
2023-04-08T13:44:22.281Z,2.70
2023-04-08T13:45:23.844Z,2.53
2023-04-08T13:46:25.642Z,2.47
2023-04-08T13:47:27.594Z,2.53
2023-04-08T13:48:29.367Z,2.73
2023-04-08T13:49:31.665Z,2.67
2023-04-08T13:50:33.188Z,2.93
2023-04-08T13:51:34.701Z,2.57
2023-04-08T13:52:36.053Z,2.97
2023-04-08T13:53:37.489Z,2.50
2023-04-08T13:54:38.882Z,2.30
2023-04-08T13:55:40.866Z,2.40
2023-04-08T13:56:42.611Z,3.10
2023-04-08T13:57:44.004Z,2.40
2023-04-08T13:58:49.796Z,2.70
2023-04-08T13:59:56.683Z,2.20
2023-04-08T14:00:58.300Z,3.00
2023-04-08T14:02:00.763Z,2.97
2023-04-08T14:03:02.836Z,2.37